Time;durP1;ratioP1;P1;durP2;ratioP2;P2;SDS_P1;SDS_P2;PMS_P1;PMS_P2;Temp;Humidity;BMP_temperature;BMP_pressure;BME280_temperature;BME280_humidity;BME280_pressure;Samples;Min_cycle;Max_cycle;Signal;HPM_P1;HPM_P2
2022/01/25 00:27:37;;;;;;;0.00;0.00;;;;;;;-4.62;55.33;100433.25;5093100;28;20032;-76
2022/01/25 00:30:21;;;;;;;0.00;0.00;;;;;;;-4.66;55.10;100430.91;5092616;28;20028;-76
2022/01/25 00:32:45;;;;;;;0.00;0.00;;;;;;;-4.71;55.06;100429.69;5092722;28;20035;-78
2022/01/25 00:35:10;;;;;;;0.00;0.00;;;;;;;-4.79;54.87;100440.84;5091711;28;20024;-76
2022/01/25 00:37:36;;;;;;;0.10;0.10;;;;;;;-4.97;55.25;100421.66;5091745;28;20062;-76
2022/01/25 00:40:01;;;;;;;0.00;0.00;;;;;;;-4.85;55.20;100444.81;5095264;28;20023;-76
2022/01/25 00:42:27;;;;;;;0.37;0.37;;;;;;;-4.90;55.44;100435.78;5112158;28;20123;-78
2022/01/25 00:44:54;;;;;;;0.00;0.00;;;;;;;-4.93;55.93;100433.44;5110550;28;20034;-75
2022/01/25 00:47:21;;;;;;;0.10;0.10;;;;;;;-4.88;55.55;100434.69;5091445;28;20044;-74
2022/01/25 00:49:51;;;;;;;0.13;0.13;;;;;;;-4.83;55.55;100444.69;5092807;28;20066;-74
2022/01/25 00:53:53;;;;;;;0.00;0.00;;;;;;;-4.87;55.43;100433.72;5092422;28;20483;-72
2022/01/25 00:55:10;;;;;;;0.00;0.00;;;;;;;-4.95;55.49;100424.97;5092378;28;20039;-72
2022/01/25 00:57:35;;;;;;;0.20;0.20;;;;;;;-5.01;55.69;100416.69;5091353;28;20488;-72
2022/01/25 01:00:01;;;;;;;1.73;1.60;;;;;;;-4.94;55.92;100434.41;5098953;28;20092;-75
2022/01/25 01:02:26;;;;;;;0.00;0.00;;;;;;;-4.96;55.81;100421.50;5091159;28;20055;-75
2022/01/25 01:04:52;;;;;;;0.00;0.00;;;;;;;-5.07;56.54;100430.31;5091137;28;20506;-74
2022/01/25 01:07:17;;;;;;;0.20;0.20;;;;;;;-5.16;56.56;100434.56;5092225;28;20024;-78
2022/01/25 01:09:47;;;;;;;0.00;0.00;;;;;;;-5.15;56.35;100431.00;5091414;28;20032;-76
2022/01/25 01:12:40;;;;;;;0.30;0.30;;;;;;;-5.20;56.61;100440.22;5090830;28;20032;-77
2022/01/25 01:15:25;;;;;;;7.93;1.13;;;;;;;-5.34;56.99;100412.78;5092086;28;20140;-74
2022/01/25 01:39:25;;;;;;;3.23;2.13;;;;;;;-5.32;56.72;100414.28;5111739;28;20047;-72
2022/01/25 01:44:40;;;;;;;0.00;0.00;;;;;;;-5.32;57.49;100400.44;5104345;28;20035;-73
2022/01/25 01:47:10;;;;;;;1.27;0.83;;;;;;;-5.31;56.60;100415.09;5105687;28;20110;-76
2022/01/25 01:49:44;;;;;;;1.73;1.13;;;;;;;-5.32;56.73;100405.66;5110425;28;20119;-73
2022/01/25 01:52:11;;;;;;;0.00;0.00;;;;;;;-5.37;57.56;100397.41;5111045;28;20087;-78
2022/01/25 01:54:37;;;;;;;0.00;0.00;;;;;;;-5.34;57.03;100402.34;5110431;28;20043;-75
2022/01/25 01:57:04;;;;;;;0.10;0.10;;;;;;;-5.35;57.21;100400.69;5110456;28;20039;-75
2022/01/25 01:59:29;;;;;;;0.23;0.23;;;;;;;-5.37;57.24;100402.63;5111501;28;20516;-75
2022/01/25 02:01:55;;;;;;;0.23;0.23;;;;;;;-5.36;57.10;100406.88;5110260;28;20031;-75
2022/01/25 02:04:20;;;;;;;0.00;0.00;;;;;;;-5.35;56.63;100403.31;5110231;28;20031;-76
2022/01/25 02:06:46;;;;;;;0.10;0.10;;;;;;;-5.53;57.12;100377.09;5110317;28;20501;-76
2022/01/25 02:09:12;;;;;;;0.00;0.00;;;;;;;-5.44;57.12;100396.31;5110545;28;20062;-74
2022/01/25 02:11:38;;;;;;;0.27;0.27;;;;;;;-5.46;57.04;100396.44;5098201;28;20427;-73
2022/01/25 02:14:08;;;;;;;0.30;0.30;;;;;;;-5.54;56.39;100385.88;5097286;28;20055;-74
2022/01/25 02:17:02;;;;;;;0.00;0.00;;;;;;;-5.58;57.08;100390.53;5108451;28;20034;-78
2022/01/25 02:22:27;;;;;;;0.00;0.00;;;;;;;-5.53;57.07;100383.16;5111625;28;20039;-76
2022/01/25 02:24:53;;;;;;;0.00;0.00;;;;;;;-5.67;56.92;100353.09;5110464;28;20053;-77
2022/01/25 02:27:19;;;;;;;0.50;0.50;;;;;;;-5.51;56.84;100378.59;5111024;28;20032;-77
2022/01/25 02:29:45;;;;;;;0.10;0.10;;;;;;;-5.48;56.92;100387.94;5094471;28;20496;-76
2022/01/25 02:32:12;;;;;;;0.00;0.00;;;;;;;-5.52;57.27;100373.53;5089518;28;20036;-79
2022/01/25 02:34:37;;;;;;;0.00;0.00;;;;;;;-5.75;57.55;100339.94;5090071;28;20471;-77
2022/01/25 02:37:09;;;;;;;0.00;0.00;;;;;;;-5.52;57.26;100374.34;5099826;28;20024;-71
2022/01/25 02:39:37;;;;;;;0.10;0.10;;;;;;;-5.60;57.83;100355.16;5111365;28;20027;-73
2022/01/25 02:42:03;;;;;;;;;;;;;;;-5.52;57.74;100374.34;5110373;28;20023;-71
2022/01/25 02:44:29;;;;;;;0.10;0.10;;;;;;;-5.59;57.89;100365.47;5095722;28;19942;-72
2022/01/25 02:49:27;;;;;;;0.00;0.00;;;;;;;-5.66;57.26;100348.72;5090853;28;20025;-72
2022/01/25 02:51:52;;;;;;;0.30;0.30;;;;;;;-5.73;57.00;100329.41;5089563;28;20028;-73
2022/01/25 02:54:17;;;;;;;0.10;0.10;;;;;;;-5.71;57.50;100343.09;5090885;28;20514;-74
2022/01/25 02:56:45;;;;;;;0.00;0.00;;;;;;;-5.59;57.45;100356.81;5091717;28;20493;-72
2022/01/25 02:59:12;;;;;;;0.00;0.00;;;;;;;-5.73;57.30;100334.59;5100150;28;20023;-72
2022/01/25 03:01:38;;;;;;;0.00;0.00;;;;;;;-5.68;57.35;100354.06;5111416;28;20098;-74
2022/01/25 03:04:06;;;;;;;0.00;0.00;;;;;;;-5.67;57.58;100347.06;5114252;28;20467;-74
2022/01/25 03:06:33;;;;;;;0.00;0.00;;;;;;;-5.70;57.64;100337.75;5113539;28;20631;-73
2022/01/25 03:08:58;;;;;;;0.00;0.00;;;;;;;-5.72;57.50;100333.66;5115357;28;20031;-73
2022/01/25 03:11:25;;;;;;;0.00;0.00;;;;;;;-5.68;57.43;100335.00;5113048;28;20020;-75
2022/01/25 03:13:55;;;;;;;0.00;0.00;;;;;;;-5.71;57.59;100336.09;5094672;28;20024;-73
2022/01/25 03:16:33;;;;;;;0.30;0.30;;;;;;;-5.80;57.86;100316.91;5095860;28;20024;-73
2022/01/25 03:19:02;;;;;;;0.00;0.00;;;;;;;-5.79;57.57;100307.31;5114976;28;20031;-72
2022/01/25 03:23:56;;;;;;;0.00;0.00;;;;;;;-5.66;57.29;100315.66;5114855;28;20489;-72
2022/01/25 03:26:23;;;;;;;0.00;0.00;;;;;;;-5.64;57.02;100321.56;5109781;28;20032;-72
2022/01/25 03:28:49;;;;;;;0.20;0.20;;;;;;;-5.70;56.44;100319.50;5094399;28;20050;-73
2022/01/25 03:31:14;;;;;;;0.83;0.83;;;;;;;-5.82;57.08;100300.59;5105718;28;20031;-72
2022/01/25 03:33:41;;;;;;;0.00;0.00;;;;;;;-5.70;57.02;100308.25;5114738;28;20483;-72
2022/01/25 03:36:07;;;;;;;0.07;0.07;;;;;;;-5.79;56.82;100292.47;5114382;28;20030;-73
2022/01/25 03:38:36;;;;;;;0.20;0.20;;;;;;;-5.67;56.50;100308.78;5114579;28;20027;-72
2022/01/25 03:41:04;;;;;;;0.00;0.00;;;;;;;-5.63;56.32;100302.38;5111651;28;20027;-74
2022/01/25 03:43:29;;;;;;;;;;;;;;;-5.62;56.28;100305.78;5094275;28;20028;-75
2022/01/25 03:46:03;;;;;;;0.10;0.10;;;;;;;-5.69;56.14;100295.09;5092977;28;19939;-74
2022/01/25 03:50:54;;;;;;;0.00;0.00;;;;;;;-5.85;55.25;100289.63;5093948;28;20024;-75
2022/01/25 03:53:20;;;;;;;0.10;0.10;;;;;;;-5.78;55.81;100296.72;5093614;28;20086;-71
2022/01/25 03:55:47;;;;;;;0.00;0.00;;;;;;;-5.76;56.02;100296.63;5092902;28;20063;-74
2022/01/25 03:58:13;;;;;;;0.00;0.00;;;;;;;-5.79;55.65;100299.50;5108418;28;20035;-77
2022/01/25 04:00:39;;;;;;;0.00;0.00;;;;;;;-5.78;55.44;100293.31;5112525;28;20051;-75
2022/01/25 04:03:21;;;;;;;0.00;0.00;;;;;;;-5.88;56.03;100282.06;5107007;28;20039;-74
2022/01/25 04:05:50;;;;;;;0.00;0.00;;;;;;;-5.83;55.80;100306.75;5092299;28;20028;-72
2022/01/25 04:08:17;;;;;;;0.03;0.03;;;;;;;-5.96;55.75;100283.59;5093375;28;20024;-73
2022/01/25 04:10:42;;;;;;;0.00;0.00;;;;;;;-5.84;55.81;100312.91;5096526;28;20024;-71
2022/01/25 04:13:08;;;;;;;0.00;0.00;;;;;;;-5.86;55.59;100306.22;5113600;28;20035;-72
2022/01/25 04:15:35;;;;;;;0.00;0.00;;;;;;;-5.96;56.14;100280.16;5111266;28;20031;-72
2022/01/25 04:20:53;;;;;;;0.00;0.00;;;;;;;-5.92;55.68;100289.34;5113814;28;20031;-74
2022/01/25 04:26:02;;;;;;;0.00;0.00;;;;;;;-5.95;56.27;100313.88;5103699;28;20089;-74
2022/01/25 04:28:28;;;;;;;0.00;0.00;;;;;;;-6.06;57.10;100300.22;5092675;28;20032;-74
2022/01/25 04:30:53;;;;;;;0.20;0.20;;;;;;;-6.08;57.63;100305.53;5094042;28;20028;-74
2022/01/25 04:33:24;;;;;;;0.00;0.00;;;;;;;-6.16;58.09;100303.63;5095471;28;20027;-74
2022/01/25 04:36:22;;;;;;;0.67;0.67;;;;;;;-6.24;58.05;100306.09;5113132;28;20035;-73
2022/01/25 04:49:44;;;;;;;0.00;0.00;;;;;;;-6.51;59.04;100311.94;5094115;28;20081;-75
2022/01/25 04:52:17;;;;;;;0.00;0.00;;;;;;;-6.57;59.72;100309.88;5091261;28;20027;-73
2022/01/25 05:00:11;;;;;;;0.00;0.00;;;;;;;-6.68;59.52;100309.00;5092754;28;20055;-73
2022/01/25 05:02:52;;;;;;;0.00;0.00;;;;;;;-6.66;59.23;100311.50;5092668;28;20444;-73
2022/01/25 05:05:38;;;;;;;0.83;0.83;;;;;;;-6.74;59.32;100309.53;5091023;28;20020;-71
2022/01/25 05:08:16;;;;;;;0.00;0.00;;;;;;;-6.86;59.37;100290.63;5101485;28;20027;-71
2022/01/25 05:10:52;;;;;;;;;;;;;;;-6.76;59.47;100308.88;5098642;28;20464;-73
2022/01/25 05:13:41;;;;;;;0.00;0.00;;;;;;;-6.77;59.69;100307.22;5097011;28;19911;-72
2022/01/25 05:16:15;;;;;;;0.00;0.00;;;;;;;-6.83;59.37;100299.94;5110294;28;20102;-72
2022/01/25 05:18:45;;;;;;;0.00;0.00;;;;;;;-6.85;59.63;100292.25;5109468;28;20555;-72
2022/01/25 05:23:56;;;;;;;0.00;0.00;;;;;;;-6.81;59.34;100298.00;5098200;28;20693;-84
2022/01/25 05:26:22;;;;;;;0.00;0.00;;;;;;;-6.77;60.15;100308.03;5109059;28;20028;-74
2022/01/25 05:28:47;;;;;;;0.37;0.37;;;;;;;-6.86;59.53;100293.22;5097303;28;20024;-73
2022/01/25 05:31:12;;;;;;;0.10;0.10;;;;;;;-6.87;60.10;100293.34;5105271;28;20028;-73
2022/01/25 05:33:38;;;;;;;0.00;0.00;;;;;;;-6.72;59.33;100306.81;5112206;28;20031;-73
2022/01/25 05:36:03;;;;;;;0.00;0.00;;;;;;;-6.76;58.94;100306.25;5111956;28;20479;-74
2022/01/25 05:38:29;;;;;;;0.00;0.00;;;;;;;-6.74;59.63;100301.72;5110524;28;20038;-73
2022/01/25 05:41:01;;;;;;;0.10;0.10;;;;;;;-6.64;59.39;100318.22;5111949;28;20042;-73
2022/01/25 05:48:26;;;;;;;0.07;0.07;;;;;;;-6.54;59.61;100294.81;5111634;28;20092;-74
2022/01/25 05:50:52;;;;;;;0.03;0.03;;;;;;;-6.47;59.24;100298.53;5111656;28;20028;-73
2022/01/25 05:53:18;;;;;;;0.00;0.00;;;;;;;-6.47;59.96;100288.13;5111902;28;20024;-73
2022/01/25 05:55:44;;;;;;;0.00;0.00;;;;;;;-6.45;58.98;100277.56;5111935;28;20058;-74
2022/01/25 05:58:09;;;;;;;0.00;0.00;;;;;;;-6.27;59.11;100306.38;5111514;28;20059;-74
2022/01/25 06:00:35;;;;;;;0.20;0.20;;;;;;;-6.36;59.65;100279.38;5111801;28;20474;-74
2022/01/25 06:03:03;;;;;;;0.00;0.00;;;;;;;-6.21;58.92;100294.56;5111279;28;20443;-74
2022/01/25 06:05:28;;;;;;;0.00;0.00;;;;;;;-6.12;58.77;100293.75;5111421;28;20031;-73
2022/01/25 06:07:54;;;;;;;0.67;0.67;;;;;;;-6.05;59.10;100291.41;5111789;28;20031;-74
2022/01/25 06:10:19;;;;;;;0.00;0.00;;;;;;;-6.03;58.67;100295.56;5110110;28;20035;-74
2022/01/25 06:12:45;;;;;;;0.00;0.00;;;;;;;-5.90;58.80;100291.81;5110065;28;20028;-76
2022/01/25 06:15:13;;;;;;;0.00;0.00;;;;;;;-5.82;58.58;100302.38;5111412;28;20088;-73
2022/01/25 06:17:39;;;;;;;0.00;0.00;;;;;;;-6.06;58.70;100251.53;5111660;28;20035;-73
2022/01/25 06:20:06;;;;;;;0.10;0.10;;;;;;;-5.81;59.34;100268.38;5110169;28;20023;-75
2022/01/25 06:22:32;;;;;;;0.00;0.00;;;;;;;-5.57;59.17;100295.75;5110000;28;20066;-73
2022/01/25 06:24:57;;;;;;;0.00;0.00;;;;;;;-5.58;58.42;100286.28;5111460;28;20055;-74
2022/01/25 06:27:23;;;;;;;0.20;0.20;;;;;;;-5.54;57.58;100284.22;5111044;28;20068;-74
2022/01/25 06:29:49;;;;;;;0.00;0.00;;;;;;;-5.46;57.74;100284.34;5111531;28;20035;-75
2022/01/25 06:32:16;;;;;;;0.00;0.00;;;;;;;-5.37;57.51;100272.25;5111293;28;20110;-76
2022/01/25 06:34:41;;;;;;;0.00;0.00;;;;;;;-5.24;56.65;100277.16;5110213;28;20551;-75
2022/01/25 06:37:07;;;;;;;0.17;0.17;;;;;;;-5.20;56.88;100274.13;5110600;28;20028;-74
2022/01/25 06:39:32;;;;;;;0.60;0.60;;;;;;;-5.13;56.08;100271.75;5114141;28;20027;-73
2022/01/25 06:41:58;;;;;;;0.00;0.00;;;;;;;-5.07;56.20;100252.09;5115900;28;20039;-74
2022/01/25 06:44:23;;;;;;;0.00;0.00;;;;;;;-4.91;55.38;100262.72;5115290;28;20107;-74
2022/01/25 06:46:49;;;;;;;0.00;0.00;;;;;;;-4.79;56.01;100267.78;5115510;28;20072;-75
2022/01/25 06:49:14;;;;;;;0.40;0.33;;;;;;;-4.69;55.81;100258.09;5115113;28;20386;-74
2022/01/25 06:51:41;;;;;;;0.20;0.20;;;;;;;-4.53;54.83;100266.09;5114789;28;20077;-74
2022/01/25 06:54:07;;;;;;;0.00;0.00;;;;;;;-4.43;54.27;100254.75;5115510;28;20030;-74
2022/01/25 06:56:32;;;;;;;0.00;0.00;;;;;;;-4.31;54.34;100255.38;5114826;28;20384;-74
2022/01/25 06:58:58;;;;;;;0.00;0.00;;;;;;;-4.22;53.32;100259.72;5113983;28;20031;-73
2022/01/25 07:01:23;;;;;;;0.00;0.00;;;;;;;-4.06;53.18;100267.69;5115006;28;20034;-73
2022/01/25 07:03:49;;;;;;;0.00;0.00;;;;;;;-3.98;53.44;100266.09;5113786;28;20015;-74
2022/01/25 07:06:14;;;;;;;0.00;0.00;;;;;;;-3.84;52.04;100268.19;5113639;28;20024;-74
2022/01/25 07:08:41;;;;;;;0.00;0.00;;;;;;;-3.74;51.26;100266.28;5113836;28;20554;-74
2022/01/25 07:11:07;;;;;;;0.00;0.00;;;;;;;-3.76;51.04;100257.81;5113667;28;20028;-75
2022/01/25 07:13:32;;;;;;;0.00;0.00;;;;;;;-3.65;50.64;100245.44;5113498;28;20030;-74
2022/01/25 07:15:57;;;;;;;0.00;0.00;;;;;;;-3.43;49.82;100267.63;5114952;28;20073;-75
2022/01/25 07:18:23;;;;;;;0.00;0.00;;;;;;;-3.47;48.83;100246.19;5114709;28;20531;-74
2022/01/25 07:20:48;;;;;;;0.00;0.00;;;;;;;-3.22;48.39;100260.25;5114916;28;20485;-74
2022/01/25 07:23:14;;;;;;;0.00;0.00;;;;;;;-3.24;47.51;100243.88;5113302;28;20016;-75
2022/01/25 07:25:39;;;;;;;0.00;0.00;;;;;;;-3.06;48.01;100243.00;5113421;28;20088;-75
2022/01/25 07:28:05;;;;;;;2.03;1.23;;;;;;;-3.03;47.58;100237.44;5113493;28;20363;-74
2022/01/25 07:30:30;;;;;;;0.00;0.00;;;;;;;-2.88;47.58;100255.16;5114419;28;20084;-74
2022/01/25 07:32:55;;;;;;;0.00;0.00;;;;;;;-2.78;47.71;100258.47;5114880;28;20027;-75
2022/01/25 07:35:21;;;;;;;0.00;0.00;;;;;;;-2.70;46.18;100249.81;5113102;28;20027;-75
2022/01/25 07:37:46;;;;;;;0.17;0.17;;;;;;;-2.70;46.99;100229.69;5114557;28;20144;-75
2022/01/25 07:40:13;;;;;;;0.00;0.00;;;;;;;-2.55;47.09;100243.00;5112972;28;20079;-73
2022/01/25 07:42:39;;;;;;;4.13;1.90;;;;;;;-2.50;45.91;100253.81;5114410;28;20020;-74
2022/01/25 07:45:09;;;;;;;0.00;0.00;;;;;;;-2.45;47.64;100253.31;5114336;28;20060;-74
2022/01/25 07:47:37;;;;;;;0.00;0.00;;;;;;;-2.44;47.89;100244.47;5114124;28;20110;-74
2022/01/25 07:50:03;;;;;;;;;;;;;;;-2.38;48.31;100256.13;5114626;28;20019;-74
2022/01/25 07:52:29;;;;;;;0.33;0.33;;;;;;;-2.41;48.20;100242.34;5113740;28;19915;-74
2022/01/25 07:54:54;;;;;;;0.00;0.00;;;;;;;-2.33;47.95;100243.34;5113962;28;20441;-74
2022/01/25 07:57:20;;;;;;;0.00;0.00;;;;;;;-2.29;47.95;100247.28;5113873;28;20080;-74
2022/01/25 07:59:45;;;;;;;0.00;0.00;;;;;;;-2.27;47.85;100242.69;5112839;28;20085;-73
2022/01/25 08:02:18;;;;;;;0.00;0.00;;;;;;;-2.20;48.36;100251.53;5112629;28;20023;-75
2022/01/25 08:04:44;;;;;;;0.00;0.00;;;;;;;-2.15;47.88;100253.69;5113939;28;20031;-72
2022/01/25 08:07:10;;;;;;;2.00;0.83;;;;;;;-2.19;46.74;100255.81;5113883;28;20028;-73
2022/01/25 08:09:35;;;;;;;0.00;0.00;;;;;;;-2.13;48.11;100259.59;5113631;28;20042;-74
2022/01/25 08:12:01;;;;;;;0.00;0.00;;;;;;;-2.08;47.67;100240.75;5112282;28;20023;-74
2022/01/25 08:14:26;;;;;;;0.10;0.10;;;;;;;-2.01;48.45;100245.19;5113554;28;20028;-74
2022/01/25 08:16:52;;;;;;;0.00;0.00;;;;;;;-1.94;47.32;100248.78;5113595;28;20036;-73
2022/01/25 08:19:19;;;;;;;0.73;0.73;;;;;;;-1.99;45.82;100218.78;5113778;28;20487;-74
2022/01/25 08:21:46;;;;;;;0.00;0.00;;;;;;;-1.83;45.61;100224.03;5113772;28;20483;-75
2022/01/25 08:24:13;;;;;;;0.00;0.00;;;;;;;-1.68;44.47;100221.53;5113132;28;20055;-72
2022/01/25 08:26:40;;;;;;;0.00;0.00;;;;;;;-1.57;44.06;100240.56;5112175;28;20093;-73
2022/01/25 08:29:06;;;;;;;0.43;0.43;;;;;;;-1.57;44.59;100209.09;5113581;28;20035;-73
2022/01/25 08:31:32;;;;;;;0.03;0.03;;;;;;;-1.35;44.57;100236.41;5113313;28;20031;-74
2022/01/25 08:33:58;;;;;;;0.00;0.00;;;;;;;-1.34;43.89;100214.44;5113118;28;20072;-74
2022/01/25 08:36:23;;;;;;;0.00;0.00;;;;;;;-1.24;43.34;100217.66;5112936;28;20352;-73
2022/01/25 08:38:49;;;;;;;0.00;0.00;;;;;;;-1.11;43.46;100230.25;5113628;28;20499;-73
2022/01/25 08:41:15;;;;;;;0.45;0.45;;;;;;;-1.06;42.80;100220.06;5111766;28;20368;-73
2022/01/25 08:43:41;;;;;;;2.00;0.75;;;;;;;-1.06;42.80;100219.22;5111955;28;20032;-75
2022/01/25 08:46:07;;;;;;;3.00;0.37;;;;;;;-0.96;43.40;100233.00;5113122;28;20386;-73
2022/01/25 08:48:32;;;;;;;0.00;0.00;;;;;;;-0.89;42.77;100227.84;5112686;28;20033;-74
2022/01/25 08:50:58;;;;;;;0.00;0.00;;;;;;;-0.97;43.39;100205.09;5112844;28;20100;-73
2022/01/25 08:53:24;;;;;;;5.83;2.10;;;;;;;-0.79;43.07;100217.13;5113122;28;20556;-73
2022/01/25 08:55:50;;;;;;;0.00;0.00;;;;;;;-0.74;42.90;100217.47;5112816;28;20053;-73
2022/01/25 08:58:15;;;;;;;0.00;0.00;;;;;;;-0.69;42.79;100215.94;5112750;28;20486;-73
2022/01/25 09:00:41;;;;;;;0.00;0.00;;;;;;;-0.56;42.75;100211.91;5112408;28;20098;-74
2022/01/25 09:03:06;;;;;;;0.00;0.00;;;;;;;-0.79;42.68;100172.47;5112487;28;20487;-74
2022/01/25 09:05:32;;;;;;;0.00;0.00;;;;;;;-0.58;41.57;100195.53;5111273;28;20107;-74
2022/01/25 09:07:58;;;;;;;0.00;0.00;;;;;;;-0.63;41.59;100193.41;5112477;28;20053;-74
2022/01/25 09:10:25;;;;;;;0.00;0.00;;;;;;;-0.60;42.26;100198.31;5112585;28;20058;-74
2022/01/25 09:12:50;;;;;;;0.00;0.00;;;;;;;-0.56;42.56;100201.41;5112999;28;20027;-73
2022/01/25 09:15:16;;;;;;;0.00;0.00;;;;;;;-0.62;41.73;100204.72;5112052;28;20106;-74
2022/01/25 09:17:41;;;;;;;0.30;0.30;;;;;;;-0.87;42.49;100157.59;5111312;28;20024;-74
2022/01/25 09:20:07;;;;;;;0.00;0.00;;;;;;;-0.66;42.01;100183.22;5111288;28;20031;-74
2022/01/25 09:22:34;;;;;;;0.00;0.00;;;;;;;-0.68;41.99;100193.13;5110877;28;20020;-74
2022/01/25 09:24:59;;;;;;;0.70;0.70;;;;;;;-0.67;42.12;100192.94;5112443;28;20027;-73
2022/01/25 09:27:25;;;;;;;2.83;0.52;;;;;;;-0.62;42.63;100181.06;5111822;28;20028;-74
2022/01/25 09:29:50;;;;;;;0.57;0.57;;;;;;;-0.68;42.77;100183.41;5112397;28;20110;-74
2022/01/25 09:32:18;;;;;;;0.43;0.43;;;;;;;-0.61;42.21;100180.94;5110729;28;20028;-74
2022/01/25 09:34:44;;;;;;;0.60;0.60;;;;;;;-0.66;42.06;100170.09;5112282;28;20027;-73
2022/01/25 09:37:09;;;;;;;0.10;0.10;;;;;;;-0.69;42.36;100166.00;5112260;28;20495;-73
2022/01/25 09:39:35;;;;;;;0.00;0.00;;;;;;;-0.65;42.74;100159.44;5110639;28;20643;-74
2022/01/25 09:42:03;;;;;;;0.85;0.85;;;;;;;-0.66;42.92;100159.59;5112182;28;20023;-73
2022/01/25 09:44:29;;;;;;;0.15;0.15;;;;;;;-0.58;42.77;100164.78;5111832;28;20062;-73
2022/01/25 09:46:56;;;;;;;0.00;0.00;;;;;;;-0.77;43.27;100126.66;5111683;28;20059;-73
2022/01/25 09:49:21;;;;;;;0.35;0.35;;;;;;;-0.46;43.15;100157.31;5111767;28;20083;-73
2022/01/25 09:51:48;;;;;;;0.00;0.00;;;;;;;-0.44;42.97;100152.72;5111787;28;20103;-73
2022/01/25 09:54:14;;;;;;;0.00;0.00;;;;;;;-0.47;42.73;100142.53;5110364;28;20034;-74
2022/01/25 09:56:40;;;;;;;1.90;0.82;;;;;;;-0.52;43.20;100143.06;5111918;28;20023;-73
2022/01/25 09:59:06;;;;;;;0.00;0.00;;;;;;;-0.50;42.27;100153.41;5111850;28;20028;-74
2022/01/25 10:01:32;;;;;;;0.43;0.43;;;;;;;-0.47;42.85;100145.19;5110315;28;20513;-73
2022/01/25 10:04:00;;;;;;;0.17;0.17;;;;;;;-0.51;42.27;100128.94;5111740;28;20120;-73
2022/01/25 10:06:31;;;;;;;0.30;0.30;;;;;;;-0.47;42.87;100139.13;5111410;28;20414;-74
2022/01/25 10:08:57;;;;;;;0.52;0.52;;;;;;;-0.41;42.79;100131.31;5110411;28;20031;-73
2022/01/25 10:11:26;;;;;;;0.00;0.00;;;;;;;-0.29;42.91;100130.88;5110684;28;20023;-73
2022/01/25 10:13:54;;;;;;;;;;;;;;;-0.24;43.14;100131.19;5111427;28;20047;-74
2022/01/25 10:16:35;;;;;;;0.43;0.43;;;;;;;-0.34;43.11;100121.75;5110059;28;19988;-73
2022/01/25 10:19:04;;;;;;;0.00;0.00;;;;;;;-0.35;43.54;100106.97;5110195;28;20020;-73
2022/01/25 10:21:35;;;;;;;0.32;0.32;;;;;;;-0.30;43.90;100097.75;5110985;28;20084;-73
2022/01/25 10:24:07;;;;;;;0.00;0.00;;;;;;;-0.20;43.45;100108.81;5110197;28;20483;-74
2022/01/25 10:26:39;;;;;;;0.00;0.00;;;;;;;-0.17;43.73;100097.94;5111107;28;20019;-73
2022/01/25 10:29:10;;;;;;;0.47;0.47;;;;;;;-0.11;43.81;100093.75;5111173;28;20032;-74
2022/01/25 10:31:41;;;;;;;0.00;0.00;;;;;;;-0.07;43.97;100085.34;5110930;28;20506;-73
2022/01/25 10:34:09;;;;;;;0.00;0.00;;;;;;;0.01;44.34;100094.13;5111125;28;20027;-73
2022/01/25 10:36:43;;;;;;;0.10;0.10;;;;;;;-0.06;44.62;100075.63;5110837;28;20406;-74
2022/01/25 10:39:08;;;;;;;0.35;0.35;;;;;;;0.06;44.52;100081.25;5111363;28;20066;-73
2022/01/25 10:41:34;;;;;;;7.72;1.35;;;;;;;0.13;44.15;100075.06;5110849;28;20541;-74
2022/01/25 10:44:00;;;;;;;0.00;0.00;;;;;;;0.15;43.78;100065.19;5111333;28;20027;-72
2022/01/25 10:46:29;;;;;;;0.00;0.00;;;;;;;0.09;44.28;100051.97;5111005;28;20043;-73
2022/01/25 10:49:07;;;;;;;2.10;1.25;;;;;;;0.17;43.96;100053.69;5111626;28;20092;-73
2022/01/25 10:51:40;;;;;;;0.00;0.00;;;;;;;0.20;43.57;100051.50;5110816;28;20602;-73
2022/01/25 10:54:09;;;;;;;0.10;0.10;;;;;;;0.14;43.08;100025.94;5111282;28;20460;-72
2022/01/25 10:56:38;;;;;;;0.00;0.00;;;;;;;0.24;43.11;100038.81;5109696;28;20459;-72
2022/01/25 10:59:05;;;;;;;0.00;0.00;;;;;;;0.29;42.85;100034.63;5109800;28;20406;-73
2022/01/25 11:01:37;;;;;;;0.00;0.00;;;;;;;0.05;41.71;99982.31;5110836;28;20052;-73
2022/01/25 11:04:29;;;;;;;0.00;0.00;;;;;;;0.32;42.60;100036.06;5111211;28;20073;-74
2022/01/25 11:07:06;;;;;;;0.00;0.00;;;;;;;0.24;42.81;100009.88;5106333;28;20096;-74
2022/01/25 11:09:40;;;;;;;0.00;0.00;;;;;;;0.45;42.84;100025.69;5109530;28;20667;-72
2022/01/25 11:12:11;;;;;;;0.00;0.00;;;;;;;0.52;42.01;100019.69;5110950;28;20031;-73
2022/01/25 11:14:57;;;;;;;0.00;0.00;;;;;;;0.58;41.66;100016.31;5110847;28;20119;-73
2022/01/25 11:17:29;;;;;;;0.00;0.00;;;;;;;0.64;41.39;100011.09;5110803;28;20108;-73
2022/01/25 11:19:56;;;;;;;0.00;0.00;;;;;;;0.42;41.30;99983.16;5109629;28;20063;-73
2022/01/25 11:22:23;;;;;;;0.00;0.00;;;;;;;0.70;41.89;100008.75;5109074;28;20509;-73
2022/01/25 11:24:52;;;;;;;0.00;0.00;;;;;;;0.70;41.74;99998.22;5114055;28;20034;-73
2022/01/25 11:27:18;;;;;;;;;;;;;;;0.66;41.95;100000.41;5114781;28;20114;-73
2022/01/25 11:29:45;;;;;;;0.00;0.00;;;;;;;0.58;41.90;99979.47;5114702;28;19912;-73
2022/01/25 11:32:14;;;;;;;0.00;0.00;;;;;;;0.69;42.26;99980.78;5114354;28;20027;-74
2022/01/25 11:34:41;;;;;;;0.00;0.00;;;;;;;0.44;42.31;99939.03;5114677;28;20051;-73
2022/01/25 11:37:08;;;;;;;0.22;0.22;;;;;;;0.57;42.06;99957.56;5113176;27;20035;-74
2022/01/25 11:39:35;;;;;;;0.00;0.00;;;;;;;0.59;42.37;99960.03;5114371;28;20028;-74
2022/01/25 11:42:23;;;;;;;0.30;0.30;;;;;;;0.72;42.40;99981.22;5095496;28;20031;-74
2022/01/25 11:44:54;;;;;;;0.13;0.13;;;;;;;0.60;42.62;99959.03;5092747;28;20509;-74
2022/01/25 11:47:31;;;;;;;0.00;0.00;;;;;;;0.70;42.70;99974.53;5093671;28;20024;-72
2022/01/25 11:50:01;;;;;;;0.22;0.22;;;;;;;0.74;42.73;99968.69;5094261;28;20111;-73
2022/01/25 11:52:29;;;;;;;0.00;0.00;;;;;;;0.65;42.76;99946.13;5093515;28;20032;-73
2022/01/25 11:55:20;;;;;;;0.00;0.00;;;;;;;0.81;42.31;99963.47;5092534;28;20521;-72
2022/01/25 11:58:00;;;;;;;0.40;0.38;;;;;;;0.83;42.52;99955.38;5082309;28;20079;-74
2022/01/25 12:00:39;;;;;;;2.63;1.75;;;;;;;0.82;42.53;99945.84;5093560;28;20028;-74
2022/01/25 12:03:23;;;;;;;0.25;0.25;;;;;;;0.90;42.01;99948.34;5092266;28;20376;-73
2022/01/25 12:06:24;;;;;;;0.00;0.00;;;;;;;0.87;41.73;99951.38;5093495;28;20433;-73
2022/01/25 12:11:36;;;;;;;0.08;0.08;;;;;;;0.85;43.07;99942.84;5093267;28;20135;-74
2022/01/25 12:14:23;;;;;;;0.00;0.00;;;;;;;0.88;42.59;99945.09;5093257;28;20509;-74
2022/01/25 12:16:55;;;;;;;0.60;0.60;;;;;;;0.94;40.52;99944.31;5092702;28;20064;-74
2022/01/25 12:19:34;;;;;;;0.00;0.00;;;;;;;0.92;38.86;99935.81;5092757;28;20028;-73
2022/01/25 12:22:12;;;;;;;0.00;0.00;;;;;;;1.00;38.70;99938.31;5091300;28;20065;-74
2022/01/25 12:24:45;;;;;;;0.00;0.00;;;;;;;1.01;39.11;99939.94;5092292;28;20028;-74
2022/01/25 12:29:44;;;;;;;0.00;0.00;;;;;;;0.94;41.17;99921.47;5092476;28;20024;-73
2022/01/25 12:32:26;;;;;;;0.00;0.00;;;;;;;0.90;41.42;99920.19;5093116;28;20020;-73
2022/01/25 12:35:01;;;;;;;0.10;0.10;;;;;;;0.99;39.94;99917.44;5092140;28;20028;-74
2022/01/25 12:37:45;;;;;;;1.75;1.65;;;;;;;1.11;40.09;99922.00;5091496;28;20411;-73
2022/01/25 12:40:25;;;;;;;0.00;0.00;;;;;;;1.10;39.60;99914.28;5092662;28;20464;-74
2022/01/25 12:43:07;;;;;;;0.10;0.10;;;;;;;1.08;38.46;99897.84;5091515;28;20062;-73
2022/01/25 12:45:44;;;;;;;0.15;0.15;;;;;;;1.20;38.72;99916.56;5090704;28;20028;-73
2022/01/25 12:48:12;;;;;;;0.00;0.00;;;;;;;1.19;38.59;99907.03;5092730;28;20122;-73
2022/01/25 12:50:40;;;;;;;0.10;0.10;;;;;;;1.18;38.67;99900.13;5092129;28;20074;-73
2022/01/25 12:53:08;;;;;;;0.00;0.00;;;;;;;1.11;38.27;99889.53;5093861;28;20109;-73
2022/01/25 12:55:37;;;;;;;0.00;0.00;;;;;;;1.22;39.09;99901.38;5111042;28;20031;-73
2022/01/25 12:58:04;;;;;;;0.20;0.20;;;;;;;1.30;38.90;99900.41;5111117;28;20092;-73
2022/01/25 13:00:38;;;;;;;0.00;0.00;;;;;;;1.30;39.30;99901.22;5111441;28;20468;-73
2022/01/25 13:03:35;;;;;;;0.05;0.05;;;;;;;1.38;39.24;99890.53;5112864;28;20535;-73
2022/01/25 13:06:00;;;;;;;0.08;0.08;;;;;;;1.43;39.48;99890.75;5103602;28;20047;-73
2022/01/25 13:08:47;;;;;;;0.00;0.00;;;;;;;1.32;39.04;99870.22;5112553;28;20076;-73
2022/01/25 13:11:25;;;;;;;2.05;0.65;;;;;;;1.44;38.47;99873.94;5111486;28;20496;-73
2022/01/25 13:14:00;;;;;;;0.10;0.10;;;;;;;1.53;38.28;99884.31;5112746;28;20055;-73